Time;durP1;ratioP1;P1;durP2;ratioP2;P2;SDS_P1;SDS_P2;PMS_P1;PMS_P2;Temp;Humidity;BMP_temperature;BMP_pressure;BME280_temperature;BME280_humidity;BME280_pressure;Samples;Min_cycle;Max_cycle;Signal;HPM_P1;HPM_P2
2022/10/12 00:00:52;;;;;;;7.32;3.17;;;23.30;61.50;;;;;;5024906;28;20053;-36
2022/10/12 00:03:18;;;;;;;3.38;2.75;;;23.20;61.30;;;;;;5017207;28;20030;-36
2022/10/12 00:05:45;;;;;;;4.07;3.20;;;23.30;61.50;;;;;;5021135;28;20103;-36
2022/10/12 00:08:11;;;;;;;6.80;3.80;;;23.30;61.50;;;;;;5020592;28;20101;-36
2022/10/12 00:10:41;;;;;;;7.05;3.70;;;23.30;61.80;;;;;;5017047;28;20076;-36
2022/10/12 00:13:08;;;;;;;6.25;3.60;;;23.30;62.30;;;;;;5022224;28;20088;-36
2022/10/12 00:15:38;;;;;;;9.75;3.92;;;23.30;62.30;;;;;;5022869;28;20609;-37
2022/10/12 00:18:04;;;;;;;8.18;3.90;;;23.30;63.10;;;;;;5020642;28;20114;-36
2022/10/12 00:20:30;;;;;;;7.88;3.13;;;23.30;63.20;;;;;;5021230;28;20026;-35
2022/10/12 00:22:57;;;;;;;7.40;3.67;;;23.30;63.50;;;;;;5025958;28;20093;-36
2022/10/12 00:25:23;;;;;;;5.95;3.45;;;23.20;64.00;;;;;;5016235;28;20021;-35
2022/10/12 00:27:49;;;;;;;5.68;3.47;;;23.20;63.80;;;;;;5019207;28;20619;-35
2022/10/12 00:30:15;;;;;;;4.78;2.90;;;23.20;63.70;;;;;;5021728;28;20066;-35
2022/10/12 00:32:41;;;;;;;5.18;3.00;;;23.20;63.60;;;;;;5020980;28;20029;-36
2022/10/12 00:35:07;;;;;;;4.43;2.83;;;23.20;63.50;;;;;;5025766;28;20072;-36
2022/10/12 00:37:33;;;;;;;4.83;2.97;;;23.20;63.40;;;;;;5027601;28;20026;-36
2022/10/12 00:39:59;;;;;;;4.88;3.08;;;23.20;63.40;;;;;;5021767;28;20048;-35
2022/10/12 00:42:26;;;;;;;3.97;2.90;;;23.20;63.30;;;;;;5018599;28;20033;-36
2022/10/12 00:44:52;;;;;;;2.95;2.58;;;23.20;63.20;;;;;;5031891;28;20535;-35
2022/10/12 00:47:31;;;;;;;2.72;2.53;;;23.20;63.20;;;;;;5030613;28;20052;-35
2022/10/12 00:50:11;;;;;;;2.63;2.42;;;23.20;63.20;;;;;;5020548;28;20038;-35
2022/10/12 00:52:48;;;;;;;3.92;2.50;;;23.20;63.10;;;;;;5042059;28;20032;-36
2022/10/12 00:55:16;;;;;;;2.80;2.30;;;23.20;63.10;;;;;;5042371;28;20030;-36
2022/10/12 00:57:42;;;;;;;3.47;2.30;;;23.20;63.10;;;;;;5022553;28;20045;-36
2022/10/12 01:00:09;;;;;;;2.60;2.22;;;23.20;63.10;;;;;;5024032;28;20029;-36
2022/10/12 01:02:35;;;;;;;;;;;23.20;63.00;;;;;;5014408;28;20041;-35
2022/10/12 01:05:02;;;;;;;2.55;2.30;;;23.30;63.10;;;;;;5016629;28;19917;-35
2022/10/12 01:07:28;;;;;;;3.45;2.30;;;23.30;63.30;;;;;;5024944;28;20029;-35
2022/10/12 01:09:54;;;;;;;6.88;2.40;;;23.20;63.00;;;;;;5030323;28;20045;-35
2022/10/12 01:12:20;;;;;;;2.95;2.20;;;23.20;62.90;;;;;;5032119;28;20474;-35
2022/10/12 01:14:46;;;;;;;2.45;2.20;;;23.20;62.90;;;;;;5028988;28;20046;-40
2022/10/12 01:17:21;;;;;;;2.75;2.20;;;23.20;62.90;;;;;;5041192;28;20036;-35
2022/10/12 01:19:57;;;;;;;2.92;2.17;;;23.20;62.90;;;;;;5020625;28;20038;-35
2022/10/12 01:22:23;;;;;;;2.25;2.05;;;23.20;63.00;;;;;;5020921;28;20041;-35
2022/10/12 01:25:30;;;;;;;2.63;2.30;;;23.20;62.90;;;;;;5028604;28;20056;-33
2022/10/12 01:28:17;;;;;;;2.67;1.92;;;23.20;63.00;;;;;;5014561;28;20022;-33
2022/10/12 01:30:44;;;;;;;5.00;2.30;;;23.30;63.00;;;;;;5044470;28;20050;-34
2022/10/12 01:33:24;;;;;;;5.03;2.47;;;23.30;63.10;;;;;;5021485;28;20029;-34
2022/10/12 01:36:28;;;;;;;5.75;2.58;;;23.30;63.50;;;;;;5027844;28;20041;-35
2022/10/12 01:39:11;;;;;;;8.55;2.83;;;23.30;63.50;;;;;;5021215;28;20049;-34
2022/10/12 01:41:43;;;;;;;12.23;2.90;;;23.30;63.30;;;;;;5022737;28;20025;-34
2022/10/12 01:44:09;;;;;;;7.63;2.60;;;23.40;63.10;;;;;;5021090;28;20038;-34
2022/10/12 01:46:38;;;;;;;6.50;2.38;;;23.40;63.10;;;;;;5018481;28;20565;-34
2022/10/12 01:49:04;;;;;;;8.55;2.95;;;23.40;63.30;;;;;;5020164;28;20540;-34
2022/10/12 01:51:57;;;;;;;5.45;2.55;;;23.40;63.30;;;;;;5016910;28;20068;-34
2022/10/12 01:54:54;;;;;;;11.40;3.15;;;23.40;63.20;;;;;;5049642;28;20034;-34
2022/10/12 01:57:38;;;;;;;4.60;2.63;;;23.40;63.20;;;;;;5020703;28;20056;-34
2022/10/12 02:00:12;;;;;;;10.15;2.78;;;23.40;63.30;;;;;;5017886;28;20033;-35
2022/10/12 02:02:44;;;;;;;4.85;2.47;;;23.40;63.20;;;;;;5018897;28;20108;-35
2022/10/12 02:05:35;;;;;;;6.82;2.67;;;23.40;63.30;;;;;;5015945;28;20053;-32
2022/10/12 02:08:31;;;;;;;3.80;2.15;;;23.40;63.30;;;;;;5018566;28;20026;-33
2022/10/12 02:11:02;;;;;;;4.15;2.35;;;23.40;63.20;;;;;;5020946;28;20045;-34
2022/10/12 02:13:29;;;;;;;3.95;2.38;;;23.40;64.10;;;;;;5016875;28;20030;-35
2022/10/12 02:15:56;;;;;;;4.38;2.40;;;23.40;63.50;;;;;;5017887;28;20034;-36
2022/10/12 02:18:23;;;;;;;3.65;2.53;;;23.40;63.70;;;;;;5015675;28;20026;-37
2022/10/12 02:20:50;;;;;;;4.53;2.45;;;23.40;63.70;;;;;;5018339;28;20030;-37
2022/10/12 02:23:16;;;;;;;3.53;2.30;;;23.40;63.60;;;;;;5017645;28;20032;-35
2022/10/12 02:25:42;;;;;;;6.40;2.40;;;23.40;63.40;;;;;;5021012;28;20026;-37
2022/10/12 02:28:10;;;;;;;4.32;2.40;;;23.40;63.30;;;;;;5019746;28;20543;-37
2022/10/12 02:30:59;;;;;;;4.28;2.05;;;23.40;63.20;;;;;;5016614;28;20054;-37
2022/10/12 02:33:28;;;;;;;3.53;2.05;;;23.40;63.20;;;;;;5018583;28;20025;-37
2022/10/12 02:36:12;;;;;;;3.55;2.35;;;23.40;63.30;;;;;;5004035;28;20030;-39
2022/10/12 02:39:02;;;;;;;3.35;2.20;;;23.40;63.30;;;;;;5033456;28;20059;-35
2022/10/12 02:41:30;;;;;;;2.00;1.80;;;23.40;63.10;;;;;;5007112;28;20042;-36
2022/10/12 02:43:58;;;;;;;2.67;1.85;;;23.30;63.00;;;;;;5020592;28;20030;-34
2022/10/12 02:46:24;;;;;;;2.72;1.90;;;23.40;63.30;;;;;;5017267;28;20033;-34
2022/10/12 02:48:51;;;;;;;2.58;2.00;;;23.30;63.00;;;;;;5017727;28;20073;-35
2022/10/12 02:51:17;;;;;;;4.17;2.00;;;23.40;63.10;;;;;;5019641;28;20049;-35
2022/10/12 02:53:44;;;;;;;2.78;1.77;;;23.30;63.00;;;;;;5020363;28;20121;-36
2022/10/12 02:56:11;;;;;;;1.60;1.50;;;23.30;63.00;;;;;;5019872;28;20038;-38
2022/10/12 02:58:38;;;;;;;2.00;1.65;;;23.30;63.00;;;;;;5016496;28;20036;-37
2022/10/12 03:01:04;;;;;;;1.70;1.60;;;23.30;62.90;;;;;;5019158;28;20050;-37
2022/10/12 03:03:30;;;;;;;3.17;1.88;;;23.30;62.90;;;;;;5016954;28;20018;-38
2022/10/12 03:05:56;;;;;;;3.70;1.92;;;23.30;62.80;;;;;;5019310;28;20663;-37
2022/10/12 03:08:22;;;;;;;1.50;1.40;;;23.30;62.80;;;;;;5021228;28;20067;-37
2022/10/12 03:10:48;;;;;;;2.08;1.85;;;23.30;62.90;;;;;;5022233;28;20039;-37
2022/10/12 03:13:14;;;;;;;1.50;1.40;;;23.30;62.80;;;;;;5020875;28;20021;-37
2022/10/12 03:15:40;;;;;;;1.88;1.60;;;23.30;62.90;;;;;;5018259;28;20030;-38
2022/10/12 03:18:07;;;;;;;1.98;1.67;;;23.20;62.80;;;;;;5024185;28;20467;-37
2022/10/12 03:20:33;;;;;;;1.83;1.73;;;23.20;62.80;;;;;;5018528;28;20029;-37
2022/10/12 03:22:59;;;;;;;1.88;1.67;;;23.20;62.80;;;;;;5019758;28;20025;-37
2022/10/12 03:25:25;;;;;;;1.65;1.55;;;23.20;62.80;;;;;;5019111;28;20036;-37
2022/10/12 03:27:51;;;;;;;2.78;1.90;;;23.20;62.80;;;;;;5015763;28;20033;-37
2022/10/12 03:30:17;;;;;;;1.40;1.30;;;23.20;62.80;;;;;;5020821;28;20093;-37
2022/10/12 03:32:43;;;;;;;1.52;1.42;;;23.20;62.70;;;;;;5021412;28;20033;-37
2022/10/12 03:35:09;;;;;;;1.77;1.60;;;23.20;62.80;;;;;;5022433;28;20036;-36
2022/10/12 03:37:36;;;;;;;1.73;1.40;;;23.20;62.80;;;;;;5016468;28;20052;-36
2022/10/12 03:40:02;;;;;;;1.55;1.45;;;23.20;62.80;;;;;;5018115;28;20132;-36
2022/10/12 03:42:28;;;;;;;1.70;1.60;;;23.20;63.40;;;;;;5015402;28;20057;-36
2022/10/12 03:44:54;;;;;;;1.60;1.50;;;23.20;63.60;;;;;;5019035;28;20030;-36
2022/10/12 03:47:20;;;;;;;1.45;1.35;;;23.10;63.70;;;;;;5018215;28;20034;-36
2022/10/12 03:49:46;;;;;;;1.48;1.38;;;23.10;63.70;;;;;;5018585;28;20034;-36
2022/10/12 03:52:12;;;;;;;1.95;1.50;;;23.10;63.70;;;;;;5022231;28;20079;-36
2022/10/12 03:54:38;;;;;;;1.60;1.50;;;23.10;63.70;;;;;;5019455;28;20034;-36
2022/10/12 03:57:04;;;;;;;1.67;1.45;;;23.10;63.70;;;;;;5017549;28;20025;-36
2022/10/12 03:59:30;;;;;;;1.70;1.60;;;23.10;63.70;;;;;;5019688;28;20105;-36
2022/10/12 04:01:57;;;;;;;1.92;1.40;;;23.10;63.70;;;;;;5019966;28;20101;-36
2022/10/12 04:04:23;;;;;;;1.50;1.40;;;23.00;63.70;;;;;;5020204;28;20030;-36
2022/10/12 04:06:49;;;;;;;2.60;1.35;;;23.00;63.70;;;;;;5020311;28;20044;-36
2022/10/12 04:09:15;;;;;;;1.50;1.40;;;23.00;63.70;;;;;;5022221;28;20090;-36
2022/10/12 04:11:41;;;;;;;1.55;1.45;;;23.00;63.80;;;;;;5019461;28;20038;-35
2022/10/12 04:14:07;;;;;;;1.80;1.70;;;23.00;63.90;;;;;;5016544;28;20022;-35
2022/10/12 04:16:33;;;;;;;1.60;1.50;;;22.90;63.90;;;;;;5019918;28;20022;-35
2022/10/12 04:18:59;;;;;;;1.60;1.48;;;22.90;63.90;;;;;;5015604;28;20029;-35
2022/10/12 04:21:25;;;;;;;1.58;1.48;;;22.90;64.00;;;;;;5019648;28;20045;-36
2022/10/12 04:23:52;;;;;;;1.35;1.25;;;22.90;64.00;;;;;;5016167;28;20103;-36
2022/10/12 04:26:18;;;;;;;1.70;1.60;;;22.90;64.00;;;;;;5021094;28;20026;-36
2022/10/12 04:28:44;;;;;;;1.70;1.60;;;22.90;64.00;;;;;;5019222;28;20025;-37
2022/10/12 04:31:10;;;;;;;1.52;1.42;;;22.90;64.00;;;;;;5018896;28;20053;-36
2022/10/12 04:33:36;;;;;;;1.45;1.35;;;22.90;64.10;;;;;;5020646;28;20706;-36
2022/10/12 04:36:02;;;;;;;1.60;1.50;;;22.90;64.10;;;;;;5018558;28;20038;-35
2022/10/12 04:38:29;;;;;;;1.60;1.50;;;22.90;64.10;;;;;;5018133;28;20039;-36
2022/10/12 04:40:55;;;;;;;1.67;1.58;;;22.90;64.10;;;;;;5019891;28;20758;-36
2022/10/12 04:43:21;;;;;;;1.52;1.40;;;22.80;64.10;;;;;;5019189;28;20073;-36
2022/10/12 04:45:54;;;;;;;1.73;1.63;;;22.80;64.10;;;;;;5015296;28;20026;-35
2022/10/12 04:48:20;;;;;;;1.58;1.48;;;22.80;64.10;;;;;;5018575;28;20444;-35
2022/10/12 04:50:46;;;;;;;1.53;1.43;;;22.90;64.10;;;;;;5019158;28;20600;-35
2022/10/12 04:53:12;;;;;;;1.85;1.75;;;22.90;64.10;;;;;;5019240;28;20096;-36
2022/10/12 04:55:38;;;;;;;1.50;1.40;;;22.90;64.10;;;;;;5020026;28;20034;-35
2022/10/12 04:58:05;;;;;;;1.60;1.50;;;22.90;64.10;;;;;;5018665;28;20032;-35
2022/10/12 05:00:31;;;;;;;1.63;1.52;;;22.90;64.10;;;;;;5021126;28;20025;-36
2022/10/12 05:02:57;;;;;;;1.65;1.55;;;22.90;64.10;;;;;;5018717;28;20049;-35
2022/10/12 05:05:23;;;;;;;1.70;1.60;;;22.90;64.10;;;;;;5019211;28;20045;-35
2022/10/12 05:07:49;;;;;;;1.48;1.38;;;22.90;64.10;;;;;;5018751;28;20035;-37
2022/10/12 05:10:15;;;;;;;1.40;1.30;;;22.90;64.40;;;;;;5017604;28;20049;-37
2022/10/12 05:12:41;;;;;;;1.67;1.58;;;22.90;65.00;;;;;;5018564;28;20029;-36
2022/10/12 05:15:08;;;;;;;1.65;1.55;;;22.90;65.00;;;;;;5019049;28;20112;-36
2022/10/12 05:17:35;;;;;;;1.60;1.35;;;22.90;64.90;;;;;;5017847;28;20026;-37
2022/10/12 05:20:01;;;;;;;1.40;1.30;;;22.90;64.70;;;;;;5020908;28;20030;-37
2022/10/12 05:22:27;;;;;;;1.45;1.35;;;22.90;64.60;;;;;;5021339;28;20502;-37
2022/10/12 05:24:53;;;;;;;2.85;1.40;;;22.90;64.60;;;;;;5022621;28;20045;-37
2022/10/12 05:27:19;;;;;;;1.38;1.27;;;22.90;64.70;;;;;;5022627;28;20034;-38
2022/10/12 05:29:45;;;;;;;1.65;1.52;;;22.90;64.70;;;;;;5023846;28;20887;-37
2022/10/12 05:32:12;;;;;;;1.65;1.55;;;22.90;65.40;;;;;;5024796;28;20060;-37
2022/10/12 05:34:38;;;;;;;1.60;1.50;;;22.90;64.60;;;;;;5022450;28;20025;-35
2022/10/12 05:37:04;;;;;;;1.50;1.40;;;22.90;64.60;;;;;;5022284;28;20101;-35
2022/10/12 05:39:30;;;;;;;1.65;1.55;;;22.80;64.60;;;;;;5020209;28;20031;-34
2022/10/12 05:41:57;;;;;;;1.70;1.52;;;22.80;64.60;;;;;;5023641;28;20038;-35
2022/10/12 05:44:23;;;;;;;;;;;22.90;64.70;;;;;;5022683;28;20034;-36
2022/10/12 05:46:49;;;;;;;1.48;1.38;;;22.80;64.70;;;;;;5022391;28;20060;-36
2022/10/12 05:49:16;;;;;;;1.60;1.50;;;22.80;64.70;;;;;;5019103;28;20040;-35
2022/10/12 05:51:42;;;;;;;1.45;1.35;;;22.80;65.00;;;;;;5022245;28;20058;-36
2022/10/12 05:54:08;;;;;;;1.73;1.60;;;22.80;65.20;;;;;;5020096;28;20162;-36
2022/10/12 05:56:34;;;;;;;1.45;1.30;;;22.70;65.30;;;;;;5022453;28;20038;-36
2022/10/12 05:59:00;;;;;;;2.35;1.90;;;22.70;65.40;;;;;;5021293;28;20069;-36
2022/10/12 06:01:26;;;;;;;1.73;1.50;;;22.70;65.70;;;;;;5021832;28;20059;-36
2022/10/12 06:03:53;;;;;;;1.70;1.60;;;22.70;65.90;;;;;;5018501;28;20034;-36
2022/10/12 06:06:20;;;;;;;2.05;1.50;;;22.80;66.10;;;;;;5020330;28;20026;-37
2022/10/12 06:08:46;;;;;;;2.85;1.50;;;22.80;66.00;;;;;;5020386;28;20116;-36
2022/10/12 06:11:12;;;;;;;1.40;1.30;;;22.80;65.90;;;;;;5020382;28;20036;-36
2022/10/12 06:13:39;;;;;;;1.45;1.35;;;22.80;65.70;;;;;;5022043;28;20451;-36
2022/10/12 06:16:05;;;;;;;1.60;1.50;;;22.80;65.60;;;;;;5020329;28;20038;-36
2022/10/12 06:18:31;;;;;;;1.50;1.40;;;22.80;66.20;;;;;;5022181;28;20030;-36
2022/10/12 06:20:57;;;;;;;1.92;1.52;;;22.80;65.50;;;;;;5019648;28;20310;-36
2022/10/12 06:23:24;;;;;;;1.50;1.40;;;22.80;65.40;;;;;;5021522;28;20037;-36
2022/10/12 06:25:50;;;;;;;1.60;1.50;;;22.80;65.50;;;;;;5018989;28;20021;-36
2022/10/12 06:28:18;;;;;;;1.70;1.60;;;22.80;65.40;;;;;;5019431;28;20078;-38
2022/10/12 06:30:45;;;;;;;2.17;1.60;;;22.80;65.30;;;;;;5021486;28;20057;-38
2022/10/12 06:33:13;;;;;;;1.50;1.40;;;22.80;65.30;;;;;;5019272;28;20107;-38
2022/10/12 06:35:39;;;;;;;1.77;1.67;;;22.80;65.40;;;;;;5020706;28;20034;-39
2022/10/12 06:38:05;;;;;;;1.63;1.52;;;22.80;65.30;;;;;;5015992;28;20093;-35
2022/10/12 06:40:31;;;;;;;1.40;1.30;;;22.80;65.30;;;;;;5022284;28;20508;-35
2022/10/12 06:43:01;;;;;;;1.65;1.55;;;22.80;65.30;;;;;;5019801;28;20034;-35
2022/10/12 06:45:28;;;;;;;1.60;1.50;;;22.80;65.30;;;;;;5019683;28;20102;-35
2022/10/12 06:47:55;;;;;;;1.75;1.60;;;22.80;65.30;;;;;;5020752;28;20025;-35
2022/10/12 06:50:21;;;;;;;1.55;1.45;;;22.70;65.30;;;;;;5017961;28;20073;-35
2022/10/12 06:52:47;;;;;;;1.60;1.50;;;22.70;65.50;;;;;;5020480;28;20374;-35
2022/10/12 06:55:13;;;;;;;1.45;1.35;;;22.70;65.50;;;;;;5021419;28;20041;-34
2022/10/12 06:57:39;;;;;;;1.58;1.48;;;22.70;65.70;;;;;;5021266;28;20034;-39
2022/10/12 07:00:06;;;;;;;1.60;1.50;;;22.70;65.70;;;;;;5024217;28;20034;-36
2022/10/12 07:02:33;;;;;;;1.50;1.40;;;22.70;66.00;;;;;;5022116;28;20030;-37
2022/10/12 07:05:00;;;;;;;1.55;1.45;;;22.70;65.80;;;;;;5023256;28;20048;-37
2022/10/12 07:07:28;;;;;;;2.15;1.42;;;22.70;65.70;;;;;;5019293;28;20034;-36
2022/10/12 07:10:14;;;;;;;1.48;1.38;;;22.70;65.60;;;;;;5020275;28;20061;-36
2022/10/12 07:12:40;;;;;;;1.30;1.20;;;22.70;65.60;;;;;;4940218;29;20600;-36
2022/10/12 07:15:07;;;;;;;1.60;1.50;;;22.70;65.60;;;;;;4939645;29;20044;-35
2022/10/12 07:17:33;;;;;;;1.60;1.50;;;22.70;65.70;;;;;;4938428;29;20042;-36
2022/10/12 07:19:59;;;;;;;2.05;1.67;;;22.80;66.50;;;;;;4946249;29;20031;-36
2022/10/12 07:22:26;;;;;;;1.70;1.60;;;22.80;66.50;;;;;;4944707;29;20216;-35
2022/10/12 07:24:52;;;;;;;1.65;1.55;;;22.80;66.40;;;;;;4923991;29;20043;-36
2022/10/12 07:27:18;;;;;;;1.63;1.52;;;22.80;66.40;;;;;;4940779;29;20561;-35
2022/10/12 07:29:44;;;;;;;1.55;1.45;;;22.80;66.30;;;;;;4940464;29;20087;-35
2022/10/12 07:32:10;;;;;;;1.67;1.58;;;22.80;66.30;;;;;;4943522;29;20051;-34
2022/10/12 07:34:37;;;;;;;1.63;1.52;;;22.80;66.10;;;;;;4951815;28;20039;-40
2022/10/12 07:37:03;;;;;;;1.70;1.60;;;22.80;66.10;;;;;;4949380;29;20142;-35
2022/10/12 07:39:29;;;;;;;1.67;1.58;;;22.80;66.00;;;;;;4945273;29;20136;-35
2022/10/12 07:41:55;;;;;;;1.50;1.40;;;22.90;66.00;;;;;;4954311;29;20067;-35
2022/10/12 07:44:22;;;;;;;1.40;1.30;;;22.90;66.00;;;;;;4946009;29;20046;-35
2022/10/12 07:46:48;;;;;;;1.75;1.40;;;22.80;65.90;;;;;;4942607;29;20170;-35
2022/10/12 07:49:14;;;;;;;1.30;1.20;;;22.80;66.40;;;;;;4961568;28;20033;-35
2022/10/12 07:51:41;;;;;;;1.20;1.10;;;22.90;65.90;;;;;;5019170;28;20034;-36
2022/10/12 07:54:07;;;;;;;1.50;1.40;;;22.90;65.90;;;;;;5018287;28;20094;-37
2022/10/12 07:56:33;;;;;;;1.40;1.30;;;22.90;65.90;;;;;;5020203;28;20064;-36
2022/10/12 07:58:59;;;;;;;1.70;1.60;;;22.80;65.90;;;;;;5018326;28;20033;-37
2022/10/12 08:01:28;;;;;;;1.47;1.37;;;22.80;65.80;;;;;;5019193;28;20041;-36
2022/10/12 08:03:54;;;;;;;1.60;1.50;;;22.90;65.80;;;;;;5017823;28;20041;-37
2022/10/12 08:06:22;;;;;;;1.30;1.20;;;22.80;65.70;;;;;;5021772;28;20034;-37
2022/10/12 08:08:48;;;;;;;1.35;1.25;;;22.90;65.80;;;;;;5019084;28;20041;-36
2022/10/12 08:11:15;;;;;;;1.38;1.27;;;22.90;65.80;;;;;;5019799;28;20044;-36
2022/10/12 08:13:41;;;;;;;1.53;1.20;;;22.90;66.00;;;;;;5020043;28;20034;-36
2022/10/12 08:16:12;;;;;;;2.20;1.40;;;22.90;66.00;;;;;;5018303;28;20030;-36
2022/10/12 08:18:38;;;;;;;1.40;1.30;;;22.90;66.00;;;;;;5017955;28;20618;-37
2022/10/12 08:21:05;;;;;;;1.58;1.48;;;22.90;65.90;;;;;;5016523;28;20034;-37
2022/10/12 08:23:32;;;;;;;1.45;1.30;;;22.90;65.90;;;;;;5019619;28;20485;-35
2022/10/12 08:25:58;;;;;;;1.33;1.23;;;22.90;65.80;;;;;;5015565;28;20042;-34
2022/10/12 08:28:24;;;;;;;1.38;1.27;;;22.90;65.80;;;;;;5019858;28;20041;-35
2022/10/12 08:30:51;;;;;;;1.42;1.20;;;22.90;65.70;;;;;;5017527;28;20064;-35
2022/10/12 08:33:17;;;;;;;1.45;1.20;;;22.90;65.70;;;;;;5018778;28;20112;-36
2022/10/12 08:35:43;;;;;;;1.30;1.20;;;22.90;65.80;;;;;;5019654;28;20615;-35
2022/10/12 08:38:10;;;;;;;1.43;1.33;;;22.90;65.90;;;;;;5020017;28;20026;-35
2022/10/12 08:40:49;;;;;;;1.35;1.25;;;22.90;65.80;;;;;;5023031;28;20030;-36
2022/10/12 08:43:35;;;;;;;1.23;1.13;;;22.90;65.80;;;;;;5019228;28;20088;-34
2022/10/12 08:46:02;;;;;;;1.50;1.35;;;22.90;65.90;;;;;;5023120;28;20029;-37
2022/10/12 08:48:35;;;;;;;1.75;1.65;;;22.90;66.10;;;;;;5018114;28;20068;-34
2022/10/12 08:51:04;;;;;;;1.98;1.50;;;22.90;66.00;;;;;;5011942;28;20046;-34
2022/10/12 08:53:47;;;;;;;1.70;1.60;;;22.90;66.00;;;;;;5046705;28;20022;-34
2022/10/12 08:56:17;;;;;;;2.05;1.70;;;22.90;66.00;;;;;;5029336;28;20033;-34
2022/10/12 08:58:43;;;;;;;4.20;2.15;;;22.90;66.20;;;;;;5031040;28;20111;-33
2022/10/12 09:01:28;;;;;;;2.20;1.70;;;22.90;66.80;;;;;;5024938;28;20030;-33
2022/10/12 09:04:25;;;;;;;12.32;3.70;;;22.90;66.80;;;;;;5023753;28;20118;-33
2022/10/12 09:07:08;;;;;;;9.13;3.17;;;22.90;67.00;;;;;;5028575;28;20029;-35
2022/10/12 09:10:16;;;;;;;12.52;3.58;;;22.90;67.10;;;;;;5032379;28;20795;-36
2022/10/12 09:13:03;;;;;;;10.95;3.22;;;23.00;66.90;;;;;;4987157;28;20045;-38
2022/10/12 09:15:35;;;;;;;9.00;3.05;;;23.00;66.50;;;;;;5020603;28;20036;-37
2022/10/12 09:18:01;;;;;;;8.00;3.33;;;23.00;66.30;;;;;;5024242;28;20034;-37
2022/10/12 09:20:51;;;;;;;6.40;3.20;;;23.00;66.10;;;;;;5021803;28;20050;-37
2022/10/12 09:23:29;;;;;;;9.38;3.03;;;23.00;66.10;;;;;;5022380;28;20295;-38
2022/10/12 09:26:14;;;;;;;10.57;3.35;;;23.00;65.90;;;;;;5020203;28;20068;-39
2022/10/12 09:28:54;;;;;;;6.82;2.92;;;23.00;65.90;;;;;;5036532;28;20803;-38
2022/10/12 09:31:37;;;;;;;10.85;2.85;;;23.10;65.80;;;;;;5025608;28;20080;-38
2022/10/12 09:34:07;;;;;;;7.47;3.05;;;23.10;65.60;;;;;;5023461;28;20034;-38
2022/10/12 09:36:35;;;;;;;5.57;3.10;;;23.10;65.60;;;;;;5020551;28;20046;-38
2022/10/12 09:39:04;;;;;;;6.60;2.90;;;23.10;65.40;;;;;;5024658;28;20465;-38
2022/10/12 09:41:39;;;;;;;8.18;3.45;;;23.10;65.40;;;;;;5022931;28;20026;-38
2022/10/12 09:44:05;;;;;;;6.78;3.00;;;23.10;65.30;;;;;;5025245;28;20042;-38
2022/10/12 09:46:50;;;;;;;6.93;2.72;;;23.10;65.30;;;;;;5019894;28;20065;-38
2022/10/12 09:49:16;;;;;;;8.93;3.15;;;23.10;65.20;;;;;;5056056;28;20047;-36
2022/10/12 09:51:43;;;;;;;5.97;3.13;;;23.10;65.20;;;;;;5021162;28;20128;-39
2022/10/12 09:54:18;;;;;;;8.35;2.83;;;23.10;65.10;;;;;;5032997;28;20125;-38
2022/10/12 09:56:51;;;;;;;6.47;2.97;;;23.00;65.00;;;;;;5017065;28;20042;-40
2022/10/12 09:59:32;;;;;;;5.15;2.67;;;23.10;65.00;;;;;;5022150;28;20099;-40
2022/10/12 10:02:14;;;;;;;6.50;2.83;;;23.10;65.00;;;;;;5020527;28;20034;-42
2022/10/12 10:04:41;;;;;;;5.43;3.05;;;23.10;65.00;;;;;;5020339;28;20084;-45
2022/10/12 10:07:30;;;;;;;9.85;3.30;;;23.10;64.90;;;;;;5021724;28;20026;-39
2022/10/12 10:10:02;;;;;;;;;;;23.10;64.90;;;;;;5023003;28;20127;-43
2022/10/12 10:12:28;;;;;;;4.35;2.67;;;23.10;64.80;;;;;;5023193;28;19917;-41
2022/10/12 10:14:57;;;;;;;4.63;2.95;;;23.00;64.80;;;;;;5021321;28;20029;-37
2022/10/12 10:17:24;;;;;;;4.63;3.22;;;23.00;64.70;;;;;;5018429;28;20022;-42
2022/10/12 10:19:51;;;;;;;9.85;4.57;;;23.00;64.80;;;;;;5025315;28;20030;-38
2022/10/12 10:22:18;;;;;;;26.45;9.57;;;23.00;65.00;;;;;;5026382;28;20034;-40
2022/10/12 10:24:49;;;;;;;46.92;13.82;;;23.10;65.20;;;;;;5025869;28;20125;-45
2022/10/12 10:27:38;;;;;;;52.88;16.05;;;23.00;65.60;;;;;;5022334;28;20022;-41
2022/10/12 10:30:16;;;;;;;38.40;13.15;;;23.10;65.90;;;;;;5019927;28;20050;-42
2022/10/12 10:32:43;;;;;;;43.97;12.88;;;23.10;66.10;;;;;;5020663;28;20030;-42
2022/10/12 10:35:11;;;;;;;34.70;12.77;;;23.10;66.10;;;;;;5019358;28;20033;-43
2022/10/12 10:37:51;;;;;;;46.30;13.00;;;23.10;66.10;;;;;;5026275;28;20030;-43
2022/10/12 10:40:25;;;;;;;50.83;13.65;;;23.10;66.10;;;;;;5023547;28;20031;-43
2022/10/12 10:42:55;;;;;;;36.72;12.10;;;23.10;66.00;;;;;;5024180;28;20030;-44
2022/10/12 10:45:42;;;;;;;36.80;12.07;;;23.10;65.90;;;;;;5031023;28;20037;-44
2022/10/12 10:48:09;;;;;;;34.85;12.63;;;23.10;66.00;;;;;;5022456;28;20034;-43
2022/10/12 10:50:41;;;;;;;29.75;11.48;;;23.10;65.80;;;;;;5032611;28;20041;-43
2022/10/12 10:53:21;;;;;;;28.63;11.15;;;23.10;65.90;;;;;;5023076;28;20213;-43
2022/10/12 10:56:04;;;;;;;26.95;10.18;;;23.10;65.80;;;;;;5025605;28;20101;-43
2022/10/12 10:58:41;;;;;;;24.05;9.48;;;23.10;65.80;;;;;;5022565;28;20033;-45
2022/10/12 11:01:27;;;;;;;26.33;9.43;;;23.10;65.70;;;;;;5016530;28;20045;-43
2022/10/12 11:04:08;;;;;;;24.58;9.52;;;23.10;65.70;;;;;;5022478;28;20029;-43
2022/10/12 11:06:49;;;;;;;19.55;8.63;;;23.10;65.60;;;;;;5020098;28;20584;-44
2022/10/12 11:09:30;;;;;;;19.77;8.10;;;23.10;65.50;;;;;;5020956;28;20034;-44
2022/10/12 11:12:00;;;;;;;20.13;8.52;;;23.10;65.40;;;;;;5021941;28;20057;-44
2022/10/12 11:14:47;;;;;;;19.77;7.68;;;23.10;65.40;;;;;;5029148;28;20038;-43
2022/10/12 11:17:26;;;;;;;14.95;7.50;;;23.10;65.40;;;;;;5031362;28;20029;-45
2022/10/12 11:20:04;;;;;;;17.33;7.47;;;23.10;65.40;;;;;;5014649;28;20049;-43
2022/10/12 11:22:48;;;;;;;15.00;6.93;;;23.10;65.50;;;;;;5020172;28;20032;-44
2022/10/12 11:25:25;;;;;;;16.83;6.90;;;23.10;65.40;;;;;;5019160;28;20029;-44
2022/10/12 11:27:51;;;;;;;14.97;7.40;;;23.10;65.50;;;;;;5019562;28;20029;-45
2022/10/12 11:30:22;;;;;;;13.55;6.72;;;23.10;65.40;;;;;;5019402;28;20053;-44
2022/10/12 11:33:03;;;;;;;12.43;6.30;;;23.00;65.30;;;;;;5020819;28;20076;-44
2022/10/12 11:35:37;;;;;;;10.80;5.95;;;23.00;65.40;;;;;;5019626;28;20038;-43
2022/10/12 11:38:09;;;;;;;10.63;5.95;;;23.00;65.30;;;;;;5017668;28;20033;-43
2022/10/12 11:40:48;;;;;;;12.60;6.20;;;23.10;65.30;;;;;;5016927;28;20026;-45
2022/10/12 11:43:18;;;;;;;10.98;5.82;;;23.00;65.30;;;;;;5022288;28;20053;-43
2022/10/12 11:45:48;;;;;;;11.65;5.85;;;23.00;65.30;;;;;;5022017;28;20038;-43
2022/10/12 11:48:33;;;;;;;10.82;5.40;;;23.00;65.30;;;;;;5018353;28;20033;-43
2022/10/12 11:50:59;;;;;;;11.40;5.88;;;23.00;65.30;;;;;;5016401;28;20046;-44
2022/10/12 11:53:31;;;;;;;9.80;5.57;;;23.00;65.20;;;;;;5018994;28;20037;-43
2022/10/12 11:56:09;;;;;;;10.15;5.68;;;23.00;65.20;;;;;;5019366;28;20054;-43
2022/10/12 11:58:39;;;;;;;9.65;5.38;;;23.00;65.20;;;;;;5018515;28;20040;-45
2022/10/12 12:01:25;;;;;;;8.23;5.47;;;23.00;65.30;;;;;;5018550;28;20034;-44
2022/10/12 12:04:00;;;;;;;10.98;6.15;;;23.00;65.20;;;;;;5019347;28;20029;-45
2022/10/12 12:06:29;;;;;;;9.43;5.28;;;23.00;65.30;;;;;;5017661;28;20104;-43
2022/10/12 12:08:56;;;;;;;7.97;5.43;;;23.00;65.30;;;;;;5024075;28;20286;-43
2022/10/12 12:11:24;;;;;;;7.00;4.88;;;23.00;65.60;;;;;;5020913;28;20037;-43
2022/10/12 12:13:50;;;;;;;7.93;4.93;;;23.00;65.60;;;;;;5018780;28;20064;-43
2022/10/12 12:16:16;;;;;;;7.40;5.22;;;23.00;65.40;;;;;;5019817;28;20034;-43
2022/10/12 12:19:08;;;;;;;6.38;4.85;;;23.00;65.40;;;;;;5022361;28;20090;-43
2022/10/12 12:22:13;;;;;;;8.00;5.00;;;23.00;65.30;;;;;;5021832;28;20037;-46
2022/10/12 12:24:39;;;;;;;9.77;5.40;;;23.00;65.30;;;;;;5018262;28;20025;-43
2022/10/12 12:27:34;;;;;;;6.97;4.75;;;23.00;66.00;;;;;;5021512;28;20116;-44
2022/10/12 12:30:03;;;;;;;6.78;4.80;;;22.90;65.20;;;;;;5011635;28;20050;-42
2022/10/12 12:32:44;;;;;;;5.82;5.00;;;22.90;65.10;;;;;;5018740;28;20029;-42
2022/10/12 12:35:37;;;;;;;8.45;4.93;;;22.90;65.20;;;;;;5019918;28;20036;-43
2022/10/12 12:38:07;;;;;;;7.68;4.82;;;22.90;65.30;;;;;;5019565;28;20041;-44
2022/10/12 12:40:33;;;;;;;6.60;4.85;;;22.90;65.20;;;;;;5018395;28;20540;-43
2022/10/12 12:43:21;;;;;;;7.60;4.90;;;22.90;65.20;;;;;;5020353;28;20038;-43
2022/10/12 12:46:14;;;;;;;7.22;5.03;;;22.90;65.20;;;;;;5016707;28;20033;-43
2022/10/12 12:48:43;;;;;;;6.38;4.70;;;22.90;65.30;;;;;;5015920;28;20046;-43
2022/10/12 12:51:11;;;;;;;7.18;5.00;;;22.90;65.40;;;;;;5015346;28;20077;-43
2022/10/12 12:53:47;;;;;;;5.90;4.65;;;22.90;65.50;;;;;;5019389;28;20022;-40
2022/10/12 12:56:24;;;;;;;5.45;4.30;;;22.90;65.50;;;;;;5019338;28;20065;-43
2022/10/12 12:59:09;;;;;;;;;;;22.90;65.70;;;;;;5022452;28;20025;-43
2022/10/12 13:01:56;;;;;;;8.98;4.68;;;22.90;65.70;;;;;;5020226;28;21539;-46
2022/10/12 13:04:37;;;;;;;6.47;4.53;;;22.90;65.60;;;;;;5019919;28;20026;-43